Time;durP1;ratioP1;P1;durP2;ratioP2;P2;SDS_P1;SDS_P2;PMS_P1;PMS_P2;Temp;Humidity;BMP_temperature;BMP_pressure;BME280_temperature;BME280_humidity;BME280_pressure;Samples;Min_cycle;Max_cycle;Signal;HPM_P1;HPM_P2
2021/06/23 00:00:39;;;;;;;11.15;7.10;;;;;;;15.44;86.86;100520.09;5018900;28;20049;-56
2021/06/23 00:03:06;;;;;;;10.85;6.10;;;;;;;15.45;87.24;100510.28;5007269;28;20064;-56
2021/06/23 00:05:33;;;;;;;12.23;6.72;;;;;;;15.45;87.80;100516.47;5008065;28;20544;-57
2021/06/23 00:07:59;;;;;;;12.93;7.25;;;;;;;15.47;87.10;100526.19;5028346;28;20049;-57
2021/06/23 00:10:26;;;;;;;11.63;7.30;;;;;;;15.48;86.97;100533.22;5017862;28;20069;-58
2021/06/23 00:12:54;;;;;;;14.07;6.65;;;;;;;15.47;87.07;100534.19;5019265;28;20405;-58
2021/06/23 00:15:21;;;;;;;11.82;6.68;;;;;;;15.46;87.08;100541.34;5021777;28;20514;-58
2021/06/23 00:17:49;;;;;;;17.05;7.68;;;;;;;15.44;87.13;100533.44;5019850;28;20060;-56
2021/06/23 00:20:16;;;;;;;12.82;7.28;;;;;;;15.42;87.04;100530.00;5004012;28;20057;-57
2021/06/23 00:22:42;;;;;;;14.30;7.30;;;;;;;15.42;87.19;100529.19;5020191;28;20037;-56
2021/06/23 00:25:09;;;;;;;14.57;7.40;;;;;;;15.39;87.00;100524.88;5026063;28;20056;-57
2021/06/23 00:27:36;;;;;;;10.48;6.88;;;;;;;15.39;87.08;100516.03;5032960;28;20045;-58
2021/06/23 00:30:04;;;;;;;9.25;6.60;;;;;;;15.40;87.28;100509.72;5049215;28;20285;-58
2021/06/23 00:32:33;;;;;;;11.32;6.45;;;;;;;15.40;87.28;100507.94;5029015;28;20041;-58
2021/06/23 00:35:00;;;;;;;10.60;6.22;;;;;;;15.43;86.89;100515.69;5021510;28;20057;-57
2021/06/23 00:37:27;;;;;;;10.52;6.78;;;;;;;15.49;87.02;100518.94;5020951;28;20056;-57
2021/06/23 00:39:53;;;;;;;10.73;6.65;;;;;;;15.52;86.47;100534.75;5023693;28;20046;-57
2021/06/23 00:42:20;;;;;;;10.27;6.68;;;;;;;15.53;86.52;100534.66;5037588;28;20117;-58
2021/06/23 00:44:46;;;;;;;13.45;6.88;;;;;;;15.57;86.54;100533.53;5036813;28;20087;-57
2021/06/23 00:47:14;;;;;;;11.50;6.78;;;;;;;15.62;85.79;100526.06;5029882;28;20162;-58
2021/06/23 00:49:41;;;;;;;12.50;6.30;;;;;;;15.67;85.36;100525.78;5025024;28;20181;-56
2021/06/23 00:52:08;;;;;;;9.63;5.88;;;;;;;15.69;85.57;100524.72;5033826;28;20057;-57
2021/06/23 00:54:35;;;;;;;10.48;6.40;;;;;;;15.73;85.02;100528.06;5034425;28;20049;-57
2021/06/23 00:57:05;;;;;;;10.73;6.38;;;;;;;15.70;84.93;100531.78;5035234;28;20055;-58
2021/06/23 00:59:33;;;;;;;10.13;6.20;;;;;;;15.68;84.82;100525.69;5019529;28;20069;-57
2021/06/23 01:02:00;;;;;;;9.48;6.80;;;;;;;15.68;84.86;100530.16;5022690;28;20527;-58
2021/06/23 01:04:29;;;;;;;8.35;6.47;;;;;;;15.69;85.37;100526.53;5019050;28;20140;-57
2021/06/23 01:06:55;;;;;;;11.50;6.57;;;;;;;15.72;84.83;100524.53;5020850;28;20045;-57
2021/06/23 01:09:22;;;;;;;9.77;6.20;;;;;;;15.69;84.74;100513.19;5011545;28;21630;-57
2021/06/23 01:12:07;;;;;;;13.18;6.00;;;;;;;15.68;84.77;100523.00;5017158;28;20049;-57
2021/06/23 01:14:37;;;;;;;10.27;6.10;;;;;;;15.67;84.79;100523.09;5012322;28;20049;-58
2021/06/23 01:17:04;;;;;;;10.30;5.97;;;;;;;15.69;84.60;100526.53;5023816;28;20348;-57
2021/06/23 01:19:33;;;;;;;10.82;5.57;;;;;;;15.71;84.68;100536.16;5008290;28;20050;-57
2021/06/23 01:22:00;;;;;;;13.70;6.40;;;;;;;15.73;83.98;100539.59;5014727;28;20377;-57
2021/06/23 01:24:26;;;;;;;9.10;5.50;;;;;;;15.72;84.29;100547.69;5018696;28;20049;-57
2021/06/23 01:26:53;;;;;;;13.07;6.22;;;;;;;15.72;84.36;100545.03;5017614;28;20491;-57
2021/06/23 01:29:20;;;;;;;11.77;6.30;;;;;;;15.70;84.17;100550.47;5030519;28;20403;-57
2021/06/23 01:31:46;;;;;;;10.75;6.60;;;;;;;15.68;84.55;100549.72;5028209;28;20063;-57
2021/06/23 01:34:14;;;;;;;10.15;5.80;;;;;;;15.76;83.86;100550.03;5019287;28;20045;-56
2021/06/23 01:36:40;;;;;;;11.77;6.22;;;;;;;15.72;84.00;100556.56;5027133;28;20449;-57
2021/06/23 01:39:07;;;;;;;10.43;5.60;;;;;;;15.71;84.39;100562.00;5018842;28;20049;-56
2021/06/23 01:41:34;;;;;;;10.30;5.68;;;;;;;15.72;84.49;100567.25;5026391;28;20060;-57
2021/06/23 01:44:01;;;;;;;7.38;5.18;;;;;;;15.71;84.65;100565.53;5021430;28;20057;-56
2021/06/23 01:46:28;;;;;;;13.30;6.25;;;;;;;15.73;84.64;100565.44;5030956;28;20132;-57
2021/06/23 01:48:55;;;;;;;6.88;5.57;;;;;;;15.77;84.66;100574.94;5034616;28;20049;-55
2021/06/23 01:51:22;;;;;;;14.82;6.15;;;;;;;15.82;84.74;100567.47;5020558;28;20053;-58
2021/06/23 01:53:49;;;;;;;13.10;6.30;;;;;;;15.85;84.20;100566.44;5037641;28;20057;-57
2021/06/23 01:56:15;;;;;;;12.35;6.38;;;;;;;15.83;83.65;100573.69;5021940;28;20154;-57
2021/06/23 01:58:42;;;;;;;10.18;5.95;;;;;;;15.81;84.17;100567.59;5022736;28;20765;-57
2021/06/23 02:01:09;;;;;;;11.18;5.80;;;;;;;15.79;84.38;100567.69;5030962;28;20051;-58
2021/06/23 02:03:54;;;;;;;9.60;5.90;;;;;;;15.77;84.61;100567.78;5015851;28;20077;-58
2021/06/23 02:06:49;;;;;;;10.43;6.55;;;;;;;15.75;84.52;100566.16;5022390;28;20053;-57
2021/06/23 02:09:21;;;;;;;9.25;5.95;;;;;;;15.75;84.29;100555.47;5025951;28;20380;-57
2021/06/23 02:11:53;;;;;;;11.10;6.00;;;;;;;15.79;84.40;100549.84;5019523;28;20057;-58
2021/06/23 02:14:40;;;;;;;11.50;6.00;;;;;;;15.80;84.62;100540.03;5024391;28;20046;-57
2021/06/23 02:17:09;;;;;;;10.30;5.68;;;;;;;15.81;84.40;100544.41;5020208;28;20058;-58
2021/06/23 02:19:42;;;;;;;10.95;6.05;;;;;;;15.84;84.78;100549.56;5004580;28;20053;-57
2021/06/23 02:22:13;;;;;;;7.60;5.60;;;;;;;15.86;84.02;100552.13;5013380;28;20049;-56
2021/06/23 02:24:39;;;;;;;10.57;5.95;;;;;;;15.84;84.05;100552.22;5027698;28;20041;-57
2021/06/23 02:27:06;;;;;;;15.02;6.18;;;;;;;15.82;84.23;100556.81;5031285;28;20041;-55
2021/06/23 02:29:33;;;;;;;11.70;6.25;;;;;;;15.79;84.29;100549.84;5022521;28;20049;-58
2021/06/23 02:32:00;;;;;;;7.97;5.53;;;;;;;15.78;84.52;100548.13;5020499;28;20114;-56
2021/06/23 02:34:27;;;;;;;9.80;6.53;;;;;;;15.79;84.59;100552.53;5019468;28;20037;-57
2021/06/23 02:36:54;;;;;;;8.23;5.43;;;;;;;15.82;84.52;100558.63;5030340;28;21243;-57
2021/06/23 02:39:21;;;;;;;12.95;6.38;;;;;;;15.82;83.91;100555.94;5019059;28;20049;-57
2021/06/23 02:41:47;;;;;;;8.80;6.05;;;;;;;15.85;84.25;100555.75;5024147;28;20083;-57
2021/06/23 02:44:14;;;;;;;11.60;6.25;;;;;;;15.88;84.23;100555.56;5018772;28;20052;-57
2021/06/23 02:46:41;;;;;;;16.83;6.55;;;;;;;15.90;83.87;100542.97;5024472;28;20516;-56
2021/06/23 02:49:08;;;;;;;8.93;5.53;;;;;;;15.92;83.92;100543.69;5018974;28;20057;-56
2021/06/23 02:51:39;;;;;;;8.15;5.78;;;;;;;15.93;83.96;100542.72;5016756;28;20088;-55
2021/06/23 02:54:07;;;;;;;7.05;5.28;;;;;;;15.96;84.04;100543.38;5026312;28;20055;-57
2021/06/23 02:56:34;;;;;;;11.48;6.07;;;;;;;15.94;83.41;100539.09;5016767;28;20060;-56
2021/06/23 02:59:02;;;;;;;13.75;6.70;;;;;;;15.91;83.63;100545.50;5025103;28;20156;-55
2021/06/23 03:01:29;;;;;;;14.10;6.18;;;;;;;15.90;83.67;100546.47;5011811;28;20080;-57
2021/06/23 03:03:56;;;;;;;11.75;6.80;;;;;;;15.88;83.43;100552.88;5015593;28;20142;-55
2021/06/23 03:06:23;;;;;;;9.50;6.20;;;;;;;15.83;83.79;100552.31;5040329;28;20049;-57
2021/06/23 03:08:50;;;;;;;10.00;6.30;;;;;;;15.81;84.07;100548.88;5021733;28;20053;-56
2021/06/23 03:11:16;;;;;;;11.95;6.68;;;;;;;15.78;83.90;100549.94;5026007;28;20589;-57
2021/06/23 03:13:43;;;;;;;14.48;6.20;;;;;;;15.74;84.01;100553.81;5017537;28;20049;-53
2021/06/23 03:16:10;;;;;;;10.98;5.45;;;;;;;15.77;84.64;100554.44;5020220;28;20042;-58
2021/06/23 03:18:37;;;;;;;8.88;6.00;;;;;;;15.79;84.03;100562.34;5024485;28;20119;-57
2021/06/23 03:21:06;;;;;;;9.27;5.80;;;;;;;15.79;83.74;100560.53;5018975;28;20067;-57
2021/06/23 03:23:32;;;;;;;8.63;6.45;;;;;;;15.79;83.77;100557.84;5026338;28;20069;-59
2021/06/23 03:25:59;;;;;;;10.68;6.25;;;;;;;15.78;83.99;100553.47;5021712;28;20087;-56
2021/06/23 03:28:26;;;;;;;11.68;6.35;;;;;;;15.79;84.33;100554.31;5021015;28;20045;-56
2021/06/23 03:30:53;;;;;;;9.45;5.50;;;;;;;15.84;84.77;100557.56;5026024;28;20049;-58
2021/06/23 03:33:20;;;;;;;9.10;6.07;;;;;;;15.86;84.00;100560.13;5009583;28;22472;-58
2021/06/23 03:35:46;;;;;;;12.93;6.07;;;;;;;15.87;83.99;100559.19;5024138;28;20144;-55
2021/06/23 03:38:13;;;;;;;13.43;6.55;;;;;;;15.87;83.68;100564.53;5012048;28;20421;-56
2021/06/23 03:40:39;;;;;;;10.05;5.82;;;;;;;15.86;83.84;100563.66;5018444;28;20061;-56
2021/06/23 03:43:06;;;;;;;13.10;5.97;;;;;;;15.89;83.95;100571.47;5039996;28;20093;-55
2021/06/23 03:45:42;;;;;;;12.77;6.30;;;;;;;15.91;83.85;100564.19;5022792;28;20496;-55
2021/06/23 03:48:09;;;;;;;7.45;5.60;;;;;;;15.95;84.14;100567.53;5029679;28;20041;-55
2021/06/23 03:50:35;;;;;;;9.45;6.03;;;;;;;15.99;83.48;100561.88;5014589;28;20052;-57
2021/06/23 03:53:03;;;;;;;12.70;5.90;;;;;;;16.00;83.48;100565.41;5020307;28;20068;-55
2021/06/23 03:55:29;;;;;;;7.60;5.47;;;;;;;16.04;83.35;100562.44;5022419;28;20112;-57
2021/06/23 03:57:57;;;;;;;9.68;5.97;;;;;;;16.08;83.06;100557.72;5019861;28;20054;-58
2021/06/23 04:00:27;;;;;;;8.48;6.30;;;;;;;16.04;82.89;100570.47;5027167;28;20068;-56
2021/06/23 04:02:55;;;;;;;10.98;6.00;;;;;;;16.04;82.84;100574.94;5016298;28;20061;-55
2021/06/23 04:05:21;;;;;;;14.05;6.30;;;;;;;16.02;83.17;100575.03;5019810;28;20813;-57
2021/06/23 04:07:48;;;;;;;10.57;6.03;;;;;;;16.03;83.21;100560.72;5027745;28;20046;-57
2021/06/23 04:10:16;;;;;;;7.15;5.78;;;;;;;16.04;83.51;100562.44;5023996;28;20053;-56
2021/06/23 04:12:43;;;;;;;12.63;6.68;;;;;;;16.10;83.27;100571.84;5005263;28;20043;-56
2021/06/23 04:15:13;;;;;;;9.25;5.43;;;;;;;16.11;83.27;100576.22;5007533;28;20975;-57
2021/06/23 04:17:40;;;;;;;11.98;5.60;;;;;;;16.13;82.99;100580.50;5005900;28;20144;-62
2021/06/23 04:20:08;;;;;;;9.77;6.00;;;;;;;16.14;83.14;100584.91;5014757;28;20401;-56
2021/06/23 04:22:35;;;;;;;11.48;6.03;;;;;;;16.17;83.12;100597.19;5016768;28;20049;-55
2021/06/23 04:25:02;;;;;;;10.20;5.68;;;;;;;16.18;83.20;100588.22;5025454;28;20049;-57
2021/06/23 04:27:29;;;;;;;10.85;5.93;;;;;;;16.19;82.50;100589.09;5015484;28;20037;-57
2021/06/23 04:29:55;;;;;;;8.38;5.45;;;;;;;16.20;82.86;100586.31;5021799;28;20045;-57
2021/06/23 04:32:22;;;;;;;10.48;5.57;;;;;;;16.26;82.73;100588.56;4994231;28;20508;-57
2021/06/23 04:34:48;;;;;;;10.48;6.28;;;;;;;16.35;82.71;100592.44;5004535;28;20098;-57
2021/06/23 04:37:15;;;;;;;8.82;5.60;;;;;;;16.39;82.52;100586.75;5011123;28;20135;-56
2021/06/23 04:39:42;;;;;;;9.70;5.50;;;;;;;16.45;82.19;100581.00;4989243;28;20054;-56
2021/06/23 04:42:08;;;;;;;10.18;5.60;;;;;;;16.49;81.76;100590.53;5002938;28;20577;-57
2021/06/23 04:44:35;;;;;;;9.00;5.55;;;;;;;16.53;81.78;100587.66;5000025;28;20053;-58
2021/06/23 04:47:01;;;;;;;9.63;5.78;;;;;;;16.56;81.50;100582.06;5025197;28;20054;-57
2021/06/23 04:49:28;;;;;;;11.65;5.60;;;;;;;16.57;81.15;100571.28;5029048;28;20045;-59
2021/06/23 04:51:55;;;;;;;8.02;5.28;;;;;;;16.65;81.34;100571.66;5009445;28;20239;-56
2021/06/23 04:54:21;;;;;;;9.23;5.28;;;;;;;16.78;80.96;100574.31;5007005;28;20042;-57
2021/06/23 04:56:48;;;;;;;9.82;6.22;;;;;;;16.86;80.36;100579.97;5001474;28;20064;-57
2021/06/23 04:59:14;;;;;;;9.13;5.55;;;;;;;16.99;80.20;100588.03;4993122;28;20054;-58
2021/06/23 05:01:41;;;;;;;8.52;5.90;;;;;;;17.12;79.19;100579.03;5000657;28;20054;-57
2021/06/23 05:04:07;;;;;;;12.10;6.38;;;;;;;17.30;78.44;100578.66;4997143;28;20164;-55
2021/06/23 05:06:35;;;;;;;10.80;6.00;;;;;;;17.40;77.83;100580.56;5015465;28;20515;-56
2021/06/23 05:09:01;;;;;;;10.40;5.57;;;;;;;17.57;77.21;100583.84;4997175;28;20054;-57
2021/06/23 05:11:28;;;;;;;10.25;5.80;;;;;;;17.59;76.66;100581.91;5013053;28;20050;-58
2021/06/23 05:13:58;;;;;;;8.95;5.53;;;;;;;17.64;77.12;100585.13;5002891;28;20115;-57
2021/06/23 05:16:26;;;;;;;10.15;6.00;;;;;;;17.64;76.16;100585.97;5002821;28;20058;-56
2021/06/23 05:18:54;;;;;;;9.15;5.50;;;;;;;17.56;76.33;100592.84;5005735;28;20081;-56
2021/06/23 05:21:21;;;;;;;12.93;5.95;;;;;;;17.42;76.82;100605.41;5002227;28;20528;-58
2021/06/23 05:23:50;;;;;;;10.68;6.50;;;;;;;17.22;77.76;100603.28;5008264;28;20136;-57
2021/06/23 05:26:17;;;;;;;12.93;6.53;;;;;;;17.14;78.33;100609.22;5006364;28;20060;-57
2021/06/23 05:28:43;;;;;;;8.60;6.50;;;;;;;17.06;78.70;100608.88;5002750;28;20509;-57
2021/06/23 05:31:10;;;;;;;12.82;6.60;;;;;;;17.02;79.27;100609.19;5008351;28;20060;-54
2021/06/23 05:33:36;;;;;;;7.63;6.07;;;;;;;17.04;79.06;100608.13;4992603;28;20042;-55
2021/06/23 05:36:03;;;;;;;12.40;6.45;;;;;;;17.13;78.89;100604.81;5008518;28;20144;-56
2021/06/23 05:38:30;;;;;;;9.63;5.80;;;;;;;17.21;79.14;100598.91;4999035;28;20046;-58
2021/06/23 05:40:56;;;;;;;13.45;6.57;;;;;;;17.40;78.45;100603.81;5008731;28;20057;-57
2021/06/23 05:43:23;;;;;;;9.20;6.28;;;;;;;17.52;77.90;100603.75;4999758;28;20053;-58
2021/06/23 05:45:49;;;;;;;12.38;6.18;;;;;;;17.74;76.94;100611.13;5003365;28;20456;-57
2021/06/23 05:48:16;;;;;;;14.00;5.90;;;;;;;17.91;76.79;100614.41;5011806;28;20053;-58
2021/06/23 05:50:44;;;;;;;9.35;5.95;;;;;;;18.02;75.59;100615.31;4996993;28;20046;-56
2021/06/23 05:53:11;;;;;;;11.68;5.97;;;;;;;18.06;75.34;100614.13;4999879;28;20054;-55
2021/06/23 05:55:40;;;;;;;7.35;5.88;;;;;;;18.16;74.99;100623.16;4996492;28;20046;-58
2021/06/23 05:58:07;;;;;;;10.38;5.88;;;;;;;18.16;74.67;100615.13;4996090;28;20046;-56
2021/06/23 06:00:35;;;;;;;10.05;6.15;;;;;;;18.21;74.53;100622.84;5002386;28;20046;-57
2021/06/23 06:03:03;;;;;;;10.25;5.55;;;;;;;18.31;74.93;100626.50;4995711;28;20050;-57
2021/06/23 06:05:30;;;;;;;13.20;6.75;;;;;;;18.40;74.46;100616.94;5018807;28;20076;-57
2021/06/23 06:07:57;;;;;;;8.48;6.10;;;;;;;18.47;74.11;100627.06;4998391;28;20076;-59
2021/06/23 06:10:23;;;;;;;9.13;5.75;;;;;;;18.48;73.89;100626.09;5005808;28;20127;-55
2021/06/23 06:12:51;;;;;;;10.10;5.65;;;;;;;18.46;74.10;100632.53;5005479;28;20496;-58
2021/06/23 06:15:17;;;;;;;6.38;5.72;;;;;;;18.36;73.43;100627.03;4989339;28;20045;-57
2021/06/23 06:17:44;;;;;;;10.50;5.47;;;;;;;18.25;74.01;100628.81;5000501;28;20042;-57
2021/06/23 06:20:12;;;;;;;9.27;6.00;;;;;;;18.16;75.02;100623.16;5000919;28;20053;-58
2021/06/23 06:22:38;;;;;;;6.95;5.55;;;;;;;18.09;75.56;100629.13;4998828;28;20037;-59
2021/06/23 06:25:05;;;;;;;11.05;6.18;;;;;;;18.00;75.20;100636.00;5000359;28;20053;-58
2021/06/23 06:27:32;;;;;;;9.93;6.25;;;;;;;17.97;75.81;100636.22;4998926;28;20480;-57
2021/06/23 06:29:59;;;;;;;11.25;6.05;;;;;;;17.94;76.05;100640.97;5003151;28;20161;-57
2021/06/23 06:32:26;;;;;;;7.93;5.50;;;;;;;17.94;76.61;100632.94;5001839;28;20073;-58
2021/06/23 06:34:52;;;;;;;8.35;6.15;;;;;;;17.97;76.21;100630.00;5002134;28;20054;-57
2021/06/23 06:37:19;;;;;;;10.02;6.38;;;;;;;17.95;76.27;100643.50;5007810;28;20046;-57
2021/06/23 06:39:46;;;;;;;8.80;6.25;;;;;;;17.94;76.95;100638.28;4999799;28;20058;-61
2021/06/23 06:42:12;;;;;;;10.13;6.18;;;;;;;17.93;77.00;100633.91;5004960;28;20072;-56
2021/06/23 06:44:39;;;;;;;10.90;6.35;;;;;;;17.87;76.91;100641.41;4993624;28;20417;-59
2021/06/23 06:47:05;;;;;;;12.43;6.40;;;;;;;17.87;77.28;100646.75;5010412;28;20184;-58
2021/06/23 06:49:32;;;;;;;10.75;6.55;;;;;;;17.89;77.39;100652.00;5001443;28;20051;-58
2021/06/23 06:52:00;;;;;;;11.80;6.97;;;;;;;17.90;77.61;100655.56;4997151;28;20050;-57
2021/06/23 06:54:28;;;;;;;14.95;7.70;;;;;;;17.91;77.64;100658.13;5005505;28;20050;-57
2021/06/23 06:56:56;;;;;;;10.98;6.80;;;;;;;17.99;77.39;100655.72;5003348;28;20053;-57
2021/06/23 06:59:22;;;;;;;8.70;6.47;;;;;;;18.11;77.66;100665.53;5010479;28;20100;-60
2021/06/23 07:01:50;;;;;;;9.60;6.50;;;;;;;18.22;76.22;100662.06;5009999;28;20045;-57
2021/06/23 07:04:17;;;;;;;9.27;6.30;;;;;;;18.29;76.15;100667.81;5005570;28;20045;-60
2021/06/23 07:06:45;;;;;;;10.68;6.45;;;;;;;18.32;76.59;100676.50;4979645;28;20062;-60
2021/06/23 07:09:12;;;;;;;11.55;6.47;;;;;;;18.42;76.31;100669.44;4996535;28;20057;-60
2021/06/23 07:11:39;;;;;;;11.98;6.60;;;;;;;18.45;76.07;100668.38;5009242;28;20520;-59
2021/06/23 07:14:06;;;;;;;11.57;7.28;;;;;;;18.49;75.88;100665.34;4998574;28;20468;-59
2021/06/23 07:16:32;;;;;;;7.60;6.00;;;;;;;18.53;76.02;100666.84;4994398;28;20145;-58
2021/06/23 07:19:00;;;;;;;12.13;7.70;;;;;;;18.60;74.91;100671.75;4975090;28;20146;-57
2021/06/23 07:21:26;;;;;;;10.35;7.68;;;;;;;18.55;75.41;100682.81;4988259;28;20064;-54
2021/06/23 07:23:54;;;;;;;12.13;7.43;;;;;;;18.55;74.83;100680.13;5006838;28;20050;-57
2021/06/23 07:26:21;;;;;;;11.75;7.97;;;;;;;18.53;75.54;100676.72;5007564;28;20069;-57
2021/06/23 07:28:52;;;;;;;10.68;7.18;;;;;;;18.58;75.45;100680.78;5006966;28;20745;-55
2021/06/23 07:31:38;;;;;;;12.30;6.77;;;;;;;18.78;75.56;100673.88;5024214;28;20516;-59
2021/06/23 07:37:05;;;;;;;13.18;7.10;;;;;;;19.13;72.91;100686.41;4919051;28;20078;-56
2021/06/23 07:39:34;;;;;;;12.52;7.38;;;;;;;19.12;72.49;100682.03;5019628;28;20063;-57
2021/06/23 07:42:01;;;;;;;11.60;7.47;;;;;;;19.16;73.42;100684.34;5012061;28;20140;-57
2021/06/23 07:44:37;;;;;;;13.15;7.38;;;;;;;19.20;71.99;100688.50;5019609;28;20478;-58
2021/06/23 07:47:08;;;;;;;11.90;7.55;;;;;;;19.26;71.93;100682.66;5018160;28;20045;-57
2021/06/23 07:49:37;;;;;;;12.73;7.05;;;;;;;19.66;70.81;100690.28;5021613;28;20084;-60
2021/06/23 07:52:11;;;;;;;10.50;7.18;;;;;;;19.85;68.96;100692.31;5024041;28;20048;-56
2021/06/23 08:11:25;;;;;;;8.25;5.63;;;;;;;21.75;64.12;100673.41;4940446;28;20082;-58
2021/06/23 08:13:52;;;;;;;9.45;6.43;;;;;;;21.87;63.94;100663.38;4989806;28;20049;-60
2021/06/23 08:16:18;;;;;;;10.15;5.88;;;;;;;21.85;64.31;100659.97;5010840;28;20054;-61
2021/06/23 08:18:45;;;;;;;10.05;6.63;;;;;;;21.94;62.24;100659.97;4997670;28;20072;-61
2021/06/23 08:21:12;;;;;;;6.03;5.40;;;;;;;22.10;63.08;100656.78;5013675;28;20477;-60
2021/06/23 08:23:38;;;;;;;8.80;6.00;;;;;;;22.08;61.25;100652.50;5030462;28;20081;-60
2021/06/23 08:26:05;;;;;;;7.60;5.18;;;;;;;21.96;62.08;100652.59;5024463;28;20654;-59
2021/06/23 08:28:31;;;;;;;8.35;5.10;;;;;;;22.09;63.51;100646.13;5021978;28;20048;-59
2021/06/23 08:30:58;;;;;;;10.10;6.10;;;;;;;22.01;61.56;100636.91;5026275;28;20053;-58
2021/06/23 08:33:26;;;;;;;6.90;5.85;;;;;;;21.86;62.13;100650.88;5022236;28;20416;-58
2021/06/23 08:35:54;;;;;;;8.93;5.88;;;;;;;21.81;63.60;100647.75;5015366;28;20081;-57
2021/06/23 08:38:22;;;;;;;8.23;5.43;;;;;;;22.04;63.64;100641.13;5016333;28;20064;-59
2021/06/23 08:40:50;;;;;;;10.40;6.10;;;;;;;22.02;62.26;100635.91;5026348;28;20114;-57
2021/06/23 08:43:17;;;;;;;9.05;6.05;;;;;;;21.92;63.04;100643.06;5016241;28;20140;-60
2021/06/23 08:45:45;;;;;;;7.30;5.38;;;;;;;22.07;63.72;100637.31;5015672;28;20049;-56
2021/06/23 08:48:12;;;;;;;8.52;5.30;;;;;;;22.32;62.06;100634.09;5016927;28;20053;-58
2021/06/23 08:50:40;;;;;;;7.13;5.00;;;;;;;22.56;62.00;100633.66;5018939;28;20064;-58
2021/06/23 08:53:08;;;;;;;7.57;5.40;;;;;;;22.65;61.03;100628.25;5018720;28;20050;-60
2021/06/23 08:55:35;;;;;;;7.38;5.50;;;;;;;22.73;61.18;100635.63;5000467;28;20045;-57
2021/06/23 08:58:03;;;;;;;7.35;6.10;;;;;;;22.73;59.80;100636.47;5014782;28;20053;-59
2021/06/23 09:00:30;;;;;;;8.48;4.80;;;;;;;22.81;61.26;100637.66;5016751;28;20057;-58
2021/06/23 09:03:02;;;;;;;8.82;6.20;;;;;;;22.69;60.10;100632.34;5014161;28;20066;-56
2021/06/23 09:05:55;;;;;;;7.82;5.70;;;;;;;22.51;61.14;100625.97;5014699;28;20057;-57
2021/06/23 09:08:32;;;;;;;9.18;5.65;;;;;;;22.61;62.31;100632.22;5017459;28;20501;-59
2021/06/23 09:11:01;;;;;;;10.32;7.53;;;;;;;22.67;61.33;100628.09;5020197;28;20056;-57
2021/06/23 09:13:28;;;;;;;7.05;5.95;;;;;;;22.54;60.92;100623.00;5024047;28;21162;-58
2021/06/23 09:16:00;;;;;;;6.82;6.05;;;;;;;22.36;61.62;100630.94;5012794;28;20062;-57
2021/06/23 09:18:35;;;;;;;10.10;6.68;;;;;;;22.18;62.00;100632.66;5013918;28;20053;-59
2021/06/23 09:21:11;;;;;;;7.85;5.65;;;;;;;22.13;63.51;100631.38;5011126;28;20366;-58
2021/06/23 09:23:42;;;;;;;7.07;5.88;;;;;;;22.43;61.68;100630.38;5014404;28;20061;-59
2021/06/23 09:26:20;;;;;;;7.00;5.95;;;;;;;22.64;61.70;100631.94;5014235;28;20048;-60
2021/06/23 09:29:11;;;;;;;7.32;6.30;;;;;;;22.85;62.55;100633.63;5013102;28;20063;-59
2021/06/23 09:32:02;;;;;;;7.53;6.72;;;;;;;22.63;61.25;100630.25;5009839;28;20057;-57
2021/06/23 09:34:32;;;;;;;9.38;6.63;;;;;;;22.21;63.10;100632.38;5027837;28;20111;-58
2021/06/23 09:36:59;;;;;;;6.50;5.88;;;;;;;22.09;63.48;100636.19;5023241;28;20544;-57
2021/06/23 09:39:28;;;;;;;11.35;7.03;;;;;;;22.02;62.79;100635.06;5020723;28;20045;-58
2021/06/23 09:41:55;;;;;;;8.25;6.82;;;;;;;21.96;63.21;100635.56;5018756;28;20058;-57
2021/06/23 09:44:23;;;;;;;8.77;6.50;;;;;;;22.01;63.46;100630.66;5020944;28;20042;-57
2021/06/23 09:46:51;;;;;;;7.95;6.03;;;;;;;22.18;63.41;100634.50;5017135;28;20560;-57
2021/06/23 09:49:21;;;;;;;7.85;6.35;;;;;;;22.32;62.30;100634.94;5005349;28;20053;-57
2021/06/23 09:51:49;;;;;;;11.53;6.40;;;;;;;22.50;62.46;100637.78;5019509;28;20053;-60
2021/06/23 09:54:19;;;;;;;15.80;7.07;;;;;;;22.43;62.15;100639.34;5022069;28;20842;-57
2021/06/23 09:57:10;;;;;;;7.40;6.67;;;;;;;22.19;63.18;100644.31;5023281;28;20552;-59
2021/06/23 09:59:39;;;;;;;8.10;6.97;;;;;;;22.21;64.00;100639.59;5018384;28;20483;-59
2021/06/23 10:02:22;;;;;;;8.18;6.53;;;;;;;22.38;64.34;100641.59;5016416;28;20049;-58
2021/06/23 10:04:50;;;;;;;7.70;6.70;;;;;;;22.64;62.56;100636.50;5007208;28;20140;-59
2021/06/23 10:07:37;;;;;;;6.68;5.60;;;;;;;22.78;62.18;100643.34;5017011;28;20060;-59
2021/06/23 10:10:05;;;;;;;6.68;5.20;;;;;;;22.92;61.81;100637.47;5017809;28;20496;-59
2021/06/23 10:12:32;;;;;;;7.75;6.07;;;;;;;23.04;61.52;100628.19;5000342;28;20496;-58
2021/06/23 10:14:58;;;;;;;7.65;4.70;;;;;;;23.17;61.28;100630.56;5019506;28;20049;-60
2021/06/23 10:17:25;;;;;;;10.38;6.05;;;;;;;23.19;60.13;100632.13;5017088;28;20055;-58
2021/06/23 10:19:53;;;;;;;9.13;6.82;;;;;;;23.04;60.48;100629.06;5018485;28;20057;-58
2021/06/23 10:22:20;;;;;;;8.10;6.68;;;;;;;23.00;60.97;100627.63;5018061;28;20049;-60
2021/06/23 10:24:54;;;;;;;7.38;6.55;;;;;;;22.91;61.05;100622.28;5015942;28;20240;-59
2021/06/23 10:27:23;;;;;;;6.28;5.55;;;;;;;22.87;61.08;100628.94;5016310;28;20114;-57
2021/06/23 10:29:55;;;;;;;8.27;6.03;;;;;;;22.98;60.86;100628.81;5018143;28;20064;-58
2021/06/23 10:32:22;;;;;;;6.55;5.85;;;;;;;23.11;60.42;100623.06;5025324;28;20132;-58
2021/06/23 10:34:50;;;;;;;9.32;6.63;;;;;;;23.30;59.84;100633.78;5019648;28;20140;-59
2021/06/23 10:37:19;;;;;;;7.05;6.28;;;;;;;23.18;60.21;100625.03;5003659;28;20141;-60
2021/06/23 10:39:50;;;;;;;7.65;6.80;;;;;;;23.24;60.17;100624.44;5009939;28;20050;-60
2021/06/23 10:42:20;;;;;;;9.50;7.00;;;;;;;23.16;60.11;100618.91;5015240;28;20501;-60
2021/06/23 10:44:52;;;;;;;;;;;;;;;23.11;60.26;100626.63;5020863;28;20531;-58
2021/06/23 10:47:53;;;;;;;6.90;5.93;;;;;;;23.21;59.70;100624.75;5017857;28;19925;-59
2021/06/23 10:50:34;;;;;;;6.88;5.78;;;;;;;23.36;58.83;100623.25;5023637;28;20669;-60
2021/06/23 10:53:03;;;;;;;6.38;5.10;;;;;;;23.50;59.21;100626.47;5024290;28;20057;-60
2021/06/23 10:55:31;;;;;;;7.53;5.47;;;;;;;23.50;58.47;100621.91;5026119;28;20077;-61
2021/06/23 10:58:10;;;;;;;7.32;5.00;;;;;;;23.82;57.56;100623.34;5023910;28;20061;-59
2021/06/23 11:00:37;;;;;;;7.15;4.90;;;;;;;23.86;57.13;100624.75;5013747;28;20049;-60
2021/06/23 11:03:16;;;;;;;5.70;5.20;;;;;;;23.63;57.81;100627.00;5022655;28;20153;-59
2021/06/23 11:06:00;;;;;;;6.50;5.72;;;;;;;23.42;58.39;100611.88;5024422;28;20054;-58
2021/06/23 11:08:28;;;;;;;6.65;5.30;;;;;;;23.32;59.01;100611.03;5018700;28;20089;-60
2021/06/23 11:10:58;;;;;;;6.38;4.95;;;;;;;23.30;58.67;100615.72;5024578;28;20052;-58
2021/06/23 11:13:31;;;;;;;5.47;4.88;;;;;;;23.26;59.12;100618.91;5019869;28;20048;-59
2021/06/23 11:15:58;;;;;;;6.43;5.18;;;;;;;23.20;58.54;100611.38;5016886;28;20120;-60
2021/06/23 11:18:45;;;;;;;5.80;5.03;;;;;;;23.06;59.07;100605.44;4972935;28;20080;-59
2021/06/23 11:21:21;;;;;;;6.68;5.43;;;;;;;23.03;59.65;100597.63;5019873;28;20056;-60
2021/06/23 11:23:53;;;;;;;6.13;5.25;;;;;;;23.28;59.75;100601.53;5021288;28;20471;-60
2021/06/23 11:26:23;;;;;;;5.63;4.60;;;;;;;23.60;59.23;100594.88;5009844;28;20416;-60
2021/06/23 11:28:55;;;;;;;6.10;5.30;;;;;;;23.88;58.08;100595.69;5009852;28;20060;-60
2021/06/23 11:31:38;;;;;;;5.70;4.88;;;;;;;23.96;57.56;100574.97;5019628;28;20395;-59
2021/06/23 11:34:05;;;;;;;5.88;5.15;;;;;;;23.85;56.95;100583.31;5019708;28;20046;-60
2021/06/23 11:36:32;;;;;;;6.95;5.30;;;;;;;23.85;59.14;100590.59;5027863;28;20040;-59
2021/06/23 11:38:59;;;;;;;5.97;5.07;;;;;;;24.07;57.71;100591.00;5033998;28;20079;-60
2021/06/23 11:41:26;;;;;;;7.05;4.63;;;;;;;24.33;57.28;100596.50;5024231;28;20047;-60
2021/06/23 11:43:52;;;;;;;7.30;4.65;;;;;;;24.53;55.90;100599.06;5022569;28;20057;-61
2021/06/23 11:46:19;;;;;;;5.53;5.07;;;;;;;24.34;55.93;100603.63;5031864;28;20137;-60
2021/06/23 11:48:46;;;;;;;7.85;4.18;;;;;;;24.18;54.89;100602.59;5026590;28;20109;-60